Decoded Metar for KBLF (BLUEFIELD in WV, USA) (IATA:BLF) | Meteo·Mobile Aviation Weather
aviador You're here:

KBLF Decoded Metar

BLUEFIELD in WV, USA
Report Time2019-03-22 09:52:00
UTC Time2019-03-22 10:26:14
Flight Rules mvfr MVFR
Wind300° at 12 Gusting to 19 kt
W.Decomp.*RWY 23: 2.7 kt HW 11.7 kt RCW
W.Rank300° ranks 5
Current wind is above 300° avg. (7.8)
Visibility9999 m
Phenomena:N/A
Clouds:Broken 014 Hf
Overcast 021 Hf
Expected CloudBase > 800 ft AGL from Temp-Dew spread
Ceiling1,400 ft
Temp01°C (ISA -8)
Dew Point-1°C (87% RH)
AAT-5.4°C
QNH1009 hPa
Density Alt2,083 ft
Elevation2,864 ft
Report Wrong Elevation
Raw Report
KBLF 220952Z AUTO 30012G19KT 10SM BKN014 OVC021 01/M01 A2981 RMK
AO2 PK WND 31028/0904 RAB0855E0859UPB0859E13SNE0855 SLP105
P0000 T00111011=

Extra information for KBLF:More info

Metar Taf Metar & Taf Last 4 Metars F.Rules Stats Wind Profile Meteogram Temp Stats Airport Information Weather charts Add Link Nearby VenuesMetar ALERT Operation Metar Decoded Social comments

AIRNAV info for KBLF